Time;durP1;ratioP1;P1;durP2;ratioP2;P2;SDS_P1;SDS_P2;PMS_P1;PMS_P2;Temp;Humidity;BMP_temperature;BMP_pressure;BME280_temperature;BME280_humidity;BME280_pressure;Samples;Min_cycle;Max_cycle;Signal;HPM_P1;HPM_P2
2022/05/06 00:01:16;;;;;;;20.70;13.52;;;12.70;99.90;;;;;;5045806;28;20179;-78
2022/05/06 00:03:42;;;;;;;25.98;15.15;;;12.80;99.90;;;;;;5047462;28;20166;-81
2022/05/06 00:06:08;;;;;;;23.58;15.45;;;12.70;99.90;;;;;;5047271;28;20192;-76
2022/05/06 00:08:35;;;;;;;32.95;17.92;;;12.70;99.90;;;;;;5046547;28;20164;-76
2022/05/06 00:11:01;;;;;;;33.25;18.00;;;12.90;99.90;;;;;;5045958;28;20192;-79
2022/05/06 00:13:29;;;;;;;31.92;16.65;;;13.00;99.90;;;;;;5045603;28;20164;-76
2022/05/06 00:15:55;;;;;;;26.85;17.25;;;13.00;99.90;;;;;;5038665;28;20184;-76
2022/05/06 00:18:22;;;;;;;23.88;17.60;;;12.90;99.90;;;;;;5034868;28;20644;-76
2022/05/06 00:20:52;;;;;;;28.27;16.52;;;12.90;99.90;;;;;;5035026;28;20174;-76
2022/05/06 00:23:18;;;;;;;28.77;17.08;;;12.90;99.90;;;;;;5035520;28;20172;-75
2022/05/06 00:25:45;;;;;;;39.42;17.42;;;13.00;99.90;;;;;;5035165;28;20238;-76
2022/05/06 00:28:13;;;;;;;31.48;17.67;;;13.10;99.90;;;;;;5035003;28;20620;-76
2022/05/06 00:30:44;;;;;;;34.85;18.08;;;13.20;99.90;;;;;;5034425;28;20215;-76
2022/05/06 00:33:13;;;;;;;29.88;17.48;;;13.10;99.90;;;;;;5050120;28;20180;-76
2022/05/06 00:35:41;;;;;;;27.30;17.33;;;13.10;99.90;;;;;;5034572;28;20184;-76
2022/05/06 00:38:07;;;;;;;31.48;17.33;;;13.00;99.90;;;;;;5034946;28;20168;-76
2022/05/06 00:40:34;;;;;;;33.28;17.33;;;13.10;99.90;;;;;;5034458;28;20221;-76
2022/05/06 00:43:05;;;;;;;29.50;17.08;;;12.80;99.90;;;;;;5034207;28;20172;-76
2022/05/06 00:45:45;;;;;;;26.60;15.88;;;12.80;99.90;;;;;;5034260;28;20188;-76
2022/05/06 00:48:11;;;;;;;26.17;16.25;;;12.60;99.90;;;;;;5033520;28;20160;-76
2022/05/06 00:50:38;;;;;;;23.45;15.15;;;12.50;99.90;;;;;;5034365;28;20179;-75
2022/05/06 00:53:09;;;;;;;19.05;14.10;;;12.40;99.90;;;;;;5034277;28;20198;-76
2022/05/06 00:55:36;;;;;;;21.40;13.90;;;12.40;99.90;;;;;;5034206;28;20222;-76
2022/05/06 00:58:03;;;;;;;21.08;12.80;;;12.50;99.90;;;;;;5034560;28;20258;-76
2022/05/06 01:00:30;;;;;;;21.30;13.50;;;12.50;99.90;;;;;;5034488;28;20179;-75
2022/05/06 01:02:56;;;;;;;23.83;14.10;;;12.50;99.90;;;;;;5034440;28;20168;-75
2022/05/06 01:05:22;;;;;;;28.92;13.95;;;12.40;99.90;;;;;;5033737;28;20199;-76
2022/05/06 01:07:50;;;;;;;26.85;15.02;;;12.30;99.90;;;;;;5034181;28;20168;-76
2022/05/06 01:10:20;;;;;;;21.65;14.15;;;12.30;99.90;;;;;;5034154;28;20168;-76
2022/05/06 01:12:46;;;;;;;29.00;13.27;;;12.40;99.90;;;;;;5034092;28;20241;-75
2022/05/06 01:15:25;;;;;;;19.98;13.52;;;12.40;99.90;;;;;;5034088;28;20663;-76
2022/05/06 01:17:53;;;;;;;21.63;14.05;;;12.50;99.90;;;;;;5034238;28;20172;-76
2022/05/06 01:20:21;;;;;;;16.60;12.55;;;12.50;99.90;;;;;;5034189;28;20522;-76
2022/05/06 01:22:49;;;;;;;20.33;14.35;;;12.50;99.90;;;;;;5034143;28;20195;-76
2022/05/06 01:25:16;;;;;;;21.25;13.38;;;12.60;99.90;;;;;;5034103;28;20601;-76
2022/05/06 01:27:55;;;;;;;22.65;14.60;;;12.60;99.90;;;;;;5033904;28;20191;-75
2022/05/06 01:30:38;;;;;;;28.92;13.60;;;12.50;99.90;;;;;;5033885;28;20171;-76
2022/05/06 01:33:09;;;;;;;19.50;13.00;;;12.30;99.90;;;;;;5033709;28;20172;-76
2022/05/06 01:36:01;;;;;;;30.95;13.52;;;12.30;99.90;;;;;;5033471;28;20636;-76
2022/05/06 01:38:42;;;;;;;26.77;15.30;;;12.20;99.90;;;;;;5034510;28;20194;-75
2022/05/06 01:41:16;;;;;;;22.10;13.80;;;12.30;99.90;;;;;;5040028;28;20237;-76
2022/05/06 01:44:01;;;;;;;29.48;13.63;;;12.20;99.90;;;;;;5044383;28;20214;-77
2022/05/06 01:46:30;;;;;;;19.77;13.80;;;12.10;99.90;;;;;;5060085;28;20202;-75
2022/05/06 01:48:57;;;;;;;26.60;15.65;;;12.10;99.90;;;;;;5043870;28;20156;-77
2022/05/06 01:51:26;;;;;;;25.27;16.02;;;12.30;99.90;;;;;;5043421;28;20200;-85
2022/05/06 01:53:52;;;;;;;29.02;15.00;;;12.50;99.90;;;;;;5041871;28;20243;-82
2022/05/06 01:56:20;;;;;;;32.28;14.43;;;12.50;99.90;;;;;;5043557;28;20191;-79
2022/05/06 01:58:50;;;;;;;32.38;15.02;;;12.10;99.90;;;;;;5043395;28;20160;-76
2022/05/06 02:01:16;;;;;;;25.88;16.55;;;12.30;99.90;;;;;;5043087;28;20199;-82
2022/05/06 02:06:26;;;;;;;29.98;15.77;;;12.20;99.90;;;;;;5044046;28;20202;-76
2022/05/06 02:08:53;;;;;;;24.45;15.32;;;12.30;99.90;;;;;;5043326;28;20175;-77
2022/05/06 02:11:21;;;;;;;25.35;15.57;;;12.40;99.90;;;;;;5041970;28;20660;-81
2022/05/06 02:13:53;;;;;;;19.83;14.40;;;12.50;99.90;;;;;;5043750;28;20247;-80
2022/05/06 02:16:22;;;;;;;24.20;15.23;;;12.50;99.90;;;;;;5043675;28;20253;-76
2022/05/06 02:18:48;;;;;;;24.20;15.80;;;12.50;99.90;;;;;;5043651;28;20199;-77
2022/05/06 02:21:15;;;;;;;21.85;14.73;;;12.60;99.90;;;;;;5044081;28;20577;-79
2022/05/06 02:23:44;;;;;;;27.05;15.93;;;12.30;99.90;;;;;;5044260;28;20175;-76
2022/05/06 02:26:11;;;;;;;23.25;15.63;;;12.20;99.90;;;;;;5042514;28;20207;-77
2022/05/06 02:28:36;;;;;;;28.70;15.57;;;12.30;99.90;;;;;;5043486;28;20167;-76
2022/05/06 02:33:48;;;;;;;25.10;15.15;;;12.00;99.90;;;;;;5044214;28;20214;-79
2022/05/06 02:36:15;;;;;;;23.63;15.32;;;12.10;99.90;;;;;;5043931;28;20211;-79
2022/05/06 02:38:42;;;;;;;26.58;15.35;;;12.20;99.90;;;;;;5045175;28;20202;-77
2022/05/06 02:41:17;;;;;;;26.02;14.18;;;12.20;99.90;;;;;;5043858;28;20274;-80
2022/05/06 02:43:43;;;;;;;22.77;14.30;;;12.10;99.90;;;;;;5056274;28;20238;-77
2022/05/06 02:46:10;;;;;;;22.27;14.45;;;12.10;99.90;;;;;;5041145;28;20188;-76
2022/05/06 02:48:35;;;;;;;26.02;14.30;;;12.10;99.90;;;;;;5032601;28;20178;-76
2022/05/06 02:51:02;;;;;;;22.27;14.05;;;11.90;99.90;;;;;;5032630;28;20199;-75
2022/05/06 02:53:29;;;;;;;23.27;14.05;;;11.90;99.90;;;;;;5047464;28;20729;-77
2022/05/06 02:55:55;;;;;;;31.40;13.90;;;11.80;99.90;;;;;;5031394;28;20236;-75
2022/05/06 02:58:21;;;;;;;23.08;13.38;;;11.90;99.90;;;;;;5032463;28;20168;-76
2022/05/06 03:00:47;;;;;;;24.33;14.18;;;12.00;99.90;;;;;;5032332;28;20264;-76
2022/05/06 03:03:16;;;;;;;27.02;14.02;;;12.00;99.90;;;;;;5032599;28;20258;-76
2022/05/06 03:05:45;;;;;;;29.77;13.65;;;12.00;99.90;;;;;;5032343;28;20571;-76
2022/05/06 03:08:13;;;;;;;31.15;13.75;;;12.00;99.90;;;;;;5033005;28;20200;-76
2022/05/06 03:10:42;;;;;;;22.98;14.05;;;11.90;99.90;;;;;;5033431;28;20184;-76
2022/05/06 03:13:08;;;;;;;23.20;12.48;;;11.90;99.90;;;;;;5051936;28;20184;-76
2022/05/06 03:15:36;;;;;;;24.60;13.68;;;11.70;99.90;;;;;;5051554;28;20663;-76
2022/05/06 03:18:02;;;;;;;28.70;14.43;;;11.60;99.90;;;;;;5018813;28;20234;-76
2022/05/06 03:20:28;;;;;;;23.63;12.90;;;11.60;99.90;;;;;;5036175;28;20163;-76
2022/05/06 03:22:55;;;;;;;20.10;13.23;;;11.60;99.90;;;;;;5035854;28;20659;-76
2022/05/06 03:25:21;;;;;;;24.25;13.80;;;11.80;99.90;;;;;;5035613;28;20250;-75
2022/05/06 03:27:59;;;;;;;20.25;12.52;;;11.80;99.90;;;;;;5036284;28;20176;-76
2022/05/06 03:30:30;;;;;;;19.10;12.25;;;11.80;99.90;;;;;;5035576;28;20222;-76
2022/05/06 03:33:01;;;;;;;22.05;12.93;;;11.70;99.90;;;;;;5035779;28;20250;-76
2022/05/06 03:35:35;;;;;;;23.02;11.00;;;11.80;99.90;;;;;;5034396;28;20203;-75
2022/05/06 03:38:02;;;;;;;26.98;11.00;;;12.00;99.90;;;;;;5035455;28;20187;-76
2022/05/06 03:40:29;;;;;;;16.23;10.65;;;11.90;99.90;;;;;;5035890;28;20156;-75
2022/05/06 03:42:54;;;;;;;19.40;11.07;;;11.80;99.90;;;;;;5051162;28;20167;-76
2022/05/06 03:45:22;;;;;;;27.20;10.60;;;11.80;99.90;;;;;;5035538;28;20200;-76
2022/05/06 03:47:47;;;;;;;15.52;11.25;;;11.60;99.90;;;;;;5033919;28;20164;-76
2022/05/06 03:52:58;;;;;;;17.08;11.63;;;11.70;99.90;;;;;;5035758;28;20273;-76
2022/05/06 03:55:25;;;;;;;14.90;10.82;;;11.60;99.90;;;;;;5035616;28;20199;-76
2022/05/06 03:57:51;;;;;;;17.05;11.27;;;11.60;99.90;;;;;;5035511;28;20543;-76
2022/05/06 04:00:19;;;;;;;16.02;10.40;;;11.60;99.90;;;;;;5050588;28;20171;-76
2022/05/06 04:02:46;;;;;;;24.15;11.40;;;11.80;99.90;;;;;;5035655;28;20615;-76
2022/05/06 04:05:12;;;;;;;20.10;11.50;;;11.90;99.90;;;;;;5035576;28;20183;-75
2022/05/06 04:07:38;;;;;;;20.25;11.95;;;12.00;99.90;;;;;;5035647;28;20179;-76
2022/05/06 04:10:06;;;;;;;16.77;11.20;;;12.00;99.90;;;;;;5035583;28;20163;-75
2022/05/06 04:12:32;;;;;;;26.10;11.18;;;11.60;99.90;;;;;;5035534;28;20214;-76
2022/05/06 04:14:58;;;;;;;24.88;11.30;;;11.50;99.90;;;;;;5035863;28;20168;-76
2022/05/06 04:17:25;;;;;;;18.88;11.75;;;11.30;99.90;;;;;;5034709;28;20191;-76
2022/05/06 04:25:19;;;;;;;31.02;12.10;;;11.50;99.90;;;;;;5034965;28;20682;-76
2022/05/06 04:27:45;;;;;;;19.83;10.82;;;11.60;99.90;;;;;;5035166;28;20237;-76
2022/05/06 04:30:12;;;;;;;17.75;11.68;;;11.60;99.90;;;;;;5034512;28;20561;-76
2022/05/06 04:32:39;;;;;;;26.08;13.07;;;11.70;99.90;;;;;;5036158;28;20660;-76
2022/05/06 04:35:08;;;;;;;31.77;13.65;;;12.00;99.90;;;;;;5043412;28;20530;-76
2022/05/06 04:37:35;;;;;;;20.23;12.65;;;12.20;99.90;;;;;;5043728;28;20218;-76
2022/05/06 04:40:03;;;;;;;19.95;12.00;;;12.20;99.90;;;;;;5043282;28;20238;-76
2022/05/06 04:42:32;;;;;;;19.02;12.45;;;12.20;99.90;;;;;;5043102;28;20203;-76
2022/05/06 04:44:59;;;;;;;24.08;12.65;;;12.30;99.90;;;;;;5044514;28;20171;-76
2022/05/06 04:47:24;;;;;;;20.33;12.70;;;12.40;99.90;;;;;;5043742;28;20183;-76
2022/05/06 04:50:13;;;;;;;22.98;13.27;;;12.60;99.90;;;;;;5044756;28;20168;-77
2022/05/06 04:52:44;;;;;;;26.02;13.15;;;12.70;99.90;;;;;;5057154;28;20220;-76
2022/05/06 04:56:00;;;;;;;17.77;11.55;;;12.80;99.90;;;;;;5056907;28;20230;-80
2022/05/06 04:58:31;;;;;;;21.83;11.90;;;12.70;99.90;;;;;;5056847;28;20190;-76
2022/05/06 05:01:21;;;;;;;19.90;11.40;;;12.30;99.90;;;;;;5057753;28;20203;-81
2022/05/06 05:04:30;;;;;;;24.15;11.38;;;12.40;99.90;;;;;;5058459;28;20188;-77
2022/05/06 05:06:57;;;;;;;15.07;11.18;;;12.30;99.90;;;;;;5037649;28;20195;-76
2022/05/06 05:09:24;;;;;;;21.02;12.38;;;12.50;99.90;;;;;;5039984;28;20211;-77
2022/05/06 05:11:50;;;;;;;23.02;13.07;;;12.50;99.90;;;;;;5035504;28;20262;-78
2022/05/06 05:14:15;;;;;;;21.35;11.85;;;12.60;99.90;;;;;;5049472;28;20168;-76
2022/05/06 05:16:41;;;;;;;15.27;10.32;;;12.40;99.90;;;;;;5033259;28;20214;-77
2022/05/06 05:19:07;;;;;;;24.83;13.40;;;12.40;99.90;;;;;;5034203;28;20168;-75
2022/05/06 05:21:32;;;;;;;25.08;12.27;;;12.50;99.90;;;;;;5033643;28;20258;-77
2022/05/06 05:23:58;;;;;;;22.02;11.35;;;12.50;99.90;;;;;;5033444;28;20211;-76
2022/05/06 05:26:25;;;;;;;16.17;10.35;;;12.40;99.90;;;;;;5033444;28;20188;-77
2022/05/06 05:28:51;;;;;;;23.20;11.07;;;12.40;99.90;;;;;;5033359;28;20168;-76
2022/05/06 05:31:17;;;;;;;17.25;11.13;;;12.30;99.90;;;;;;5033327;28;20200;-78
2022/05/06 05:33:42;;;;;;;22.15;11.70;;;12.30;99.90;;;;;;5032935;28;20160;-76
2022/05/06 05:36:08;;;;;;;19.67;11.27;;;12.70;99.90;;;;;;5048765;28;20187;-76
2022/05/06 05:38:34;;;;;;;12.00;9.50;;;12.60;99.90;;;;;;5031289;28;20534;-76
2022/05/06 05:40:59;;;;;;;19.77;10.38;;;12.40;99.90;;;;;;5032432;28;20200;-76
2022/05/06 05:48:53;;;;;;;13.52;10.02;;;12.20;99.90;;;;;;5032741;28;20190;-77
2022/05/06 05:51:19;;;;;;;11.82;9.60;;;12.20;99.90;;;;;;5032448;28;20192;-78
2022/05/06 05:53:44;;;;;;;15.20;11.07;;;12.00;99.90;;;;;;5032913;28;20629;-76
2022/05/06 05:56:10;;;;;;;11.82;9.95;;;12.10;99.90;;;;;;5032949;28;20191;-76
2022/05/06 05:58:35;;;;;;;9.80;8.80;;;12.30;99.90;;;;;;5032528;28;20164;-76
2022/05/06 06:01:04;;;;;;;15.63;10.05;;;12.40;99.90;;;;;;5032626;28;20184;-76
2022/05/06 06:03:30;;;;;;;13.02;9.10;;;12.60;99.90;;;;;;5047901;28;20168;-76
2022/05/06 06:05:56;;;;;;;9.40;8.20;;;12.50;99.90;;;;;;5031972;28;20317;-76
2022/05/06 06:08:23;;;;;;;11.77;8.88;;;12.60;99.90;;;;;;5032362;28;20179;-76
2022/05/06 06:10:49;;;;;;;12.50;9.30;;;13.00;99.90;;;;;;5031454;28;20164;-77
2022/05/06 06:13:17;;;;;;;11.68;9.38;;;12.70;99.90;;;;;;5031623;28;20235;-77
2022/05/06 06:15:43;;;;;;;10.75;9.45;;;12.80;99.90;;;;;;5031993;28;20195;-79
2022/05/06 06:18:09;;;;;;;14.18;10.18;;;13.00;99.90;;;;;;5031316;28;20574;-77
2022/05/06 06:20:34;;;;;;;15.95;10.13;;;13.30;99.90;;;;;;5031786;28;20200;-79
2022/05/06 06:23:00;;;;;;;13.20;9.60;;;13.40;99.90;;;;;;5047735;28;20164;-76
2022/05/06 06:25:26;;;;;;;25.63;10.50;;;13.60;99.90;;;;;;5031843;28;20188;-76
2022/05/06 06:27:52;;;;;;;14.13;10.85;;;13.50;99.90;;;;;;5031600;28;20170;-75
2022/05/06 06:30:18;;;;;;;13.98;9.93;;;13.60;99.90;;;;;;5031828;28;20254;-75
2022/05/06 06:32:43;;;;;;;12.73;10.02;;;13.60;99.90;;;;;;5031718;28;20207;-76
2022/05/06 06:35:09;;;;;;;15.07;11.00;;;13.80;99.90;;;;;;5031274;28;20275;-81
2022/05/06 06:37:38;;;;;;;15.00;10.35;;;13.70;99.90;;;;;;5032184;28;20672;-75
2022/05/06 06:40:05;;;;;;;16.45;11.10;;;13.60;99.90;;;;;;5031901;28;20179;-75
2022/05/06 06:42:30;;;;;;;15.07;11.52;;;13.40;99.90;;;;;;5032346;28;20168;-75
2022/05/06 06:44:58;;;;;;;17.40;11.05;;;13.20;99.90;;;;;;5031186;28;20520;-75
2022/05/06 06:47:24;;;;;;;14.85;11.20;;;13.30;99.90;;;;;;5032574;28;20222;-75
2022/05/06 06:49:49;;;;;;;15.05;11.80;;;13.60;99.90;;;;;;5031766;28;20168;-76
2022/05/06 06:52:15;;;;;;;16.63;12.07;;;13.60;99.90;;;;;;5031681;28;20211;-75
2022/05/06 06:54:41;;;;;;;19.80;12.90;;;13.60;99.90;;;;;;5032336;28;20682;-75
2022/05/06 06:57:06;;;;;;;17.80;11.90;;;13.60;99.90;;;;;;5032765;28;20249;-75
2022/05/06 06:59:32;;;;;;;19.52;13.05;;;14.00;99.90;;;;;;5033502;28;20195;-74
2022/05/06 07:01:58;;;;;;;26.10;13.40;;;13.80;99.90;;;;;;5034919;28;20179;-75
2022/05/06 07:04:23;;;;;;;29.52;14.18;;;13.90;99.90;;;;;;5049221;28;20163;-75
2022/05/06 07:12:18;;;;;;;21.92;13.40;;;14.10;99.90;;;;;;5025121;28;20255;-84
2022/05/06 07:14:44;;;;;;;23.13;12.57;;;14.00;99.90;;;;;;5013092;28;20815;-76
2022/05/06 07:17:09;;;;;;;26.95;12.65;;;14.10;99.90;;;;;;5012914;28;20177;-80
2022/05/06 07:19:35;;;;;;;24.95;13.10;;;14.10;99.90;;;;;;5012809;28;20173;-79
2022/05/06 07:22:01;;;;;;;28.15;15.13;;;13.90;99.90;;;;;;5012140;28;20518;-89
2022/05/06 07:24:26;;;;;;;31.55;18.65;;;14.20;99.90;;;;;;5031250;28;20542;-79
2022/05/06 07:26:53;;;;;;;25.92;15.35;;;14.20;99.90;;;;;;5014556;28;20652;-84
2022/05/06 07:29:19;;;;;;;28.23;14.35;;;14.00;99.90;;;;;;5012714;28;20165;-77
2022/05/06 07:31:45;;;;;;;22.75;13.00;;;14.00;99.90;;;;;;5011474;28;20222;-76
2022/05/06 07:34:11;;;;;;;25.17;13.60;;;13.90;99.90;;;;;;5031288;28;20163;-89
2022/05/06 07:36:41;;;;;;;36.03;14.63;;;13.90;99.90;;;;;;5032379;28;20203;-86
2022/05/06 07:39:11;;;;;;;33.78;14.50;;;14.10;99.90;;;;;;5031935;28;20251;-76
2022/05/06 07:41:37;;;;;;;29.42;14.02;;;14.40;99.90;;;;;;5015468;28;20172;-78
2022/05/06 07:44:04;;;;;;;19.58;13.45;;;14.60;99.90;;;;;;5011750;28;20169;-80
2022/05/06 07:46:31;;;;;;;30.80;14.73;;;14.60;99.90;;;;;;5026071;28;20278;-76
2022/05/06 07:48:56;;;;;;;33.20;14.60;;;14.80;99.90;;;;;;5031247;28;20168;-76
2022/05/06 07:51:22;;;;;;;37.92;18.55;;;15.00;99.90;;;;;;5030643;28;20196;-75
2022/05/06 07:53:51;;;;;;;35.67;19.00;;;14.90;99.90;;;;;;5030683;28;20168;-76
2022/05/06 07:56:20;;;;;;;46.75;20.73;;;14.80;99.90;;;;;;5013841;28;20184;-76
2022/05/06 07:58:46;;;;;;;36.55;21.70;;;14.80;99.90;;;;;;5016296;28;20180;-75
2022/05/06 08:01:13;;;;;;;34.67;20.55;;;14.80;99.90;;;;;;5021466;28;20181;-75
2022/05/06 08:06:24;;;;;;;28.70;15.85;;;14.70;99.90;;;;;;5016698;28;20315;-76
2022/05/06 08:08:54;;;;;;;26.70;14.65;;;14.80;99.90;;;;;;5016163;28;20234;-76
2022/05/06 08:11:20;;;;;;;33.92;15.82;;;14.80;99.90;;;;;;5023273;28;20263;-75
2022/05/06 08:13:49;;;;;;;27.20;15.57;;;15.20;99.90;;;;;;5024573;28;20200;-76
2022/05/06 08:16:16;;;;;;;26.80;13.95;;;15.50;99.90;;;;;;5013820;28;20185;-76
2022/05/06 08:18:42;;;;;;;28.98;15.52;;;15.80;99.90;;;;;;5018802;28;20533;-76
2022/05/06 08:21:07;;;;;;;25.48;14.70;;;16.20;99.90;;;;;;5015177;28;20215;-76
2022/05/06 08:23:33;;;;;;;26.85;14.02;;;16.30;99.90;;;;;;5014116;28;20195;-78
2022/05/06 08:26:00;;;;;;;23.25;13.77;;;16.30;99.90;;;;;;5014093;28;20188;-76
2022/05/06 08:28:27;;;;;;;25.13;14.95;;;15.80;99.90;;;;;;5018771;28;20176;-78
2022/05/06 08:30:53;;;;;;;25.95;15.05;;;16.20;99.90;;;;;;5032006;28;20279;-76
2022/05/06 08:33:19;;;;;;;21.60;13.20;;;16.30;99.90;;;;;;5033332;28;20342;-80
2022/05/06 08:35:45;;;;;;;22.33;13.38;;;16.50;99.90;;;;;;5034320;28;20195;-76
2022/05/06 08:38:13;;;;;;;29.13;14.77;;;16.40;99.90;;;;;;5033293;28;20210;-76
2022/05/06 08:40:39;;;;;;;24.67;14.68;;;16.60;99.90;;;;;;5035026;28;20187;-76
2022/05/06 08:43:05;;;;;;;23.40;14.38;;;16.50;99.90;;;;;;5033317;28;20628;-77
2022/05/06 08:51:03;;;;;;;27.10;14.70;;;16.90;99.90;;;;;;5034204;28;20639;-81
2022/05/06 08:53:33;;;;;;;28.80;14.57;;;17.30;99.90;;;;;;5033439;28;20257;-76
2022/05/06 08:56:02;;;;;;;26.38;15.30;;;17.50;99.90;;;;;;5033159;28;20183;-82
2022/05/06 08:58:31;;;;;;;28.60;15.88;;;17.10;99.90;;;;;;5032219;28;20180;-79
2022/05/06 09:01:17;;;;;;;26.30;14.88;;;17.40;99.90;;;;;;5034466;28;20254;-78
2022/05/06 09:03:44;;;;;;;32.03;16.00;;;16.60;99.90;;;;;;5034025;28;20188;-76
2022/05/06 09:06:26;;;;;;;24.40;14.10;;;16.90;99.90;;;;;;5033705;28;20275;-76
2022/05/06 09:08:53;;;;;;;27.17;15.38;;;16.90;99.90;;;;;;5033062;28;20176;-78
2022/05/06 09:14:05;;;;;;;25.70;13.55;;;17.00;99.90;;;;;;5033690;28;20794;-78
2022/05/06 09:16:39;;;;;;;26.05;14.35;;;17.10;99.90;;;;;;5015978;28;20197;-79
2022/05/06 09:19:10;;;;;;;27.10;15.35;;;17.00;99.90;;;;;;5013174;28;20648;-79
2022/05/06 09:21:37;;;;;;;35.53;16.30;;;16.90;99.90;;;;;;5014134;28;20634;-78
2022/05/06 09:24:19;;;;;;;30.08;15.02;;;17.00;99.90;;;;;;5013883;28;20164;-86
2022/05/06 09:27:05;;;;;;;31.20;15.80;;;17.30;99.90;;;;;;5013861;28;20215;-75
2022/05/06 09:29:37;;;;;;;23.90;14.25;;;16.90;99.90;;;;;;5013766;28;20173;-79
2022/05/06 09:32:14;;;;;;;37.00;16.15;;;17.00;99.90;;;;;;5013076;28;20243;-80
2022/05/06 09:34:44;;;;;;;35.58;14.77;;;17.30;99.90;;;;;;5013280;28;20171;-76
2022/05/06 09:37:10;;;;;;;33.22;16.45;;;17.60;99.90;;;;;;5028505;28;20169;-77
2022/05/06 09:39:39;;;;;;;28.85;16.05;;;17.80;99.90;;;;;;5013165;28;20176;-77
2022/05/06 09:42:06;;;;;;;35.92;16.50;;;17.80;99.90;;;;;;5012810;28;20633;-77
2022/05/06 09:44:34;;;;;;;29.42;15.95;;;17.90;99.90;;;;;;5011995;28;20207;-78
2022/05/06 09:47:12;;;;;;;33.38;15.15;;;17.90;99.90;;;;;;5028237;28;20188;-78
2022/05/06 09:49:38;;;;;;;29.55;14.88;;;17.80;99.90;;;;;;5012224;28;20262;-84
2022/05/06 09:52:09;;;;;;;27.52;16.40;;;17.80;99.90;;;;;;5027691;28;20717;-86
2022/05/06 09:54:35;;;;;;;29.90;16.13;;;17.90;99.90;;;;;;5014846;28;20171;-90
2022/05/06 09:57:06;;;;;;;22.60;14.50;;;17.50;99.90;;;;;;5030218;28;20192;-89
2022/05/06 09:59:32;;;;;;;22.27;13.63;;;17.10;99.90;;;;;;5015234;28;20271;-87
2022/05/06 10:01:58;;;;;;;25.17;15.18;;;17.40;99.90;;;;;;5014866;28;20191;-86
2022/05/06 10:04:24;;;;;;;40.33;15.45;;;17.70;99.90;;;;;;5014810;28;20172;-85
2022/05/06 10:06:50;;;;;;;25.40;14.85;;;18.00;99.90;;;;;;5015400;28;20260;-91
2022/05/06 10:09:20;;;;;;;24.30;15.40;;;17.90;99.90;;;;;;5019733;28;20187;-81
2022/05/06 10:11:48;;;;;;;29.73;13.55;;;17.70;99.90;;;;;;5033709;28;20233;-77
2022/05/06 10:14:15;;;;;;;21.67;13.07;;;17.90;99.90;;;;;;5033130;28;20174;-78
2022/05/06 10:16:41;;;;;;;19.63;12.80;;;18.10;99.90;;;;;;5033144;28;20192;-78
2022/05/06 10:19:38;;;;;;;22.85;13.02;;;18.50;99.90;;;;;;5033397;28;20229;-80
2022/05/06 10:22:05;;;;;;;23.67;13.13;;;18.60;99.90;;;;;;5028980;28;20190;-83
2022/05/06 10:24:43;;;;;;;25.15;12.07;;;18.40;99.90;;;;;;5047538;28;20588;-78
2022/05/06 10:27:22;;;;;;;20.85;11.82;;;18.60;99.90;;;;;;5032417;28;20315;-83
2022/05/06 10:32:53;;;;;;;18.20;10.90;;;18.50;99.90;;;;;;5032385;28;20218;-77
2022/05/06 10:35:36;;;;;;;23.63;11.95;;;18.50;99.90;;;;;;5032743;28;20183;-86
2022/05/06 10:38:15;;;;;;;17.50;11.23;;;18.60;99.90;;;;;;5034225;28;20163;-89
2022/05/06 10:40:54;;;;;;;24.80;10.95;;;19.00;99.90;;;;;;5034825;28;20710;-91
2022/05/06 10:43:41;;;;;;;45.63;11.05;;;19.30;99.90;;;;;;5036542;28;20163;-92
2022/05/06 10:46:07;;;;;;;21.02;10.73;;;19.30;99.90;;;;;;5041201;28;20202;-87
2022/05/06 10:48:33;;;;;;;12.00;8.55;;;19.30;99.90;;;;;;5040420;28;20172;-95
2022/05/06 10:51:21;;;;;;;15.20;9.65;;;19.40;99.90;;;;;;5042201;28;20509;-79
2022/05/06 10:53:47;;;;;;;14.30;9.48;;;19.50;99.90;;;;;;5037045;28;20519;-83
2022/05/06 10:56:14;;;;;;;19.83;8.95;;;19.60;99.90;;;;;;5033898;28;20215;-87
2022/05/06 10:58:40;;;;;;;9.38;7.55;;;19.70;99.90;;;;;;5032869;28;20242;-88
2022/05/06 11:01:06;;;;;;;8.88;6.88;;;19.90;99.90;;;;;;5032530;28;20179;-84
2022/05/06 11:03:31;;;;;;;9.02;6.03;;;19.70;99.90;;;;;;5032277;28;20621;-82
2022/05/06 11:05:58;;;;;;;11.05;7.15;;;19.80;99.90;;;;;;5032457;28;20703;-80
2022/05/06 11:08:33;;;;;;;14.75;7.18;;;19.90;99.90;;;;;;5033237;28;20160;-87
2022/05/06 11:10:59;;;;;;;6.68;5.97;;;19.70;99.90;;;;;;5033510;28;20250;-87
2022/05/06 11:13:25;;;;;;;9.15;6.97;;;19.40;99.90;;;;;;5032795;28;20391;-83
2022/05/06 11:15:52;;;;;;;7.75;6.15;;;19.30;99.90;;;;;;5033648;28;20203;-84
2022/05/06 11:18:19;;;;;;;6.97;5.68;;;19.50;99.90;;;;;;5034674;28;20245;-85
2022/05/06 11:20:45;;;;;;;10.85;6.30;;;19.90;99.90;;;;;;5033580;28;20160;-84
2022/05/06 11:23:14;;;;;;;11.07;6.63;;;20.00;99.90;;;;;;5034526;28;20167;-85
2022/05/06 11:25:44;;;;;;;7.50;6.05;;;20.20;99.90;;;;;;5034135;28;20191;-83
2022/05/06 11:28:13;;;;;;;6.95;5.40;;;19.90;99.90;;;;;;5034633;28;20168;-77
2022/05/06 11:30:43;;;;;;;9.73;5.68;;;20.10;99.90;;;;;;5033972;28;20192;-81
2022/05/06 11:33:28;;;;;;;18.05;5.07;;;20.20;99.90;;;;;;5035962;28;20634;-81
2022/05/06 11:36:01;;;;;;;8.75;5.05;;;20.30;99.90;;;;;;5037595;28;20241;-81
2022/05/06 11:38:33;;;;;;;5.97;5.05;;;20.50;99.90;;;;;;5037064;28;20171;-85
2022/05/06 11:41:12;;;;;;;7.85;5.50;;;20.40;99.90;;;;;;5036677;28;20187;-88
2022/05/06 11:43:39;;;;;;;10.77;5.97;;;20.50;99.90;;;;;;5037036;28;20164;-77
2022/05/06 11:48:50;;;;;;;9.98;5.07;;;20.40;99.90;;;;;;5037027;28;20702;-86
2022/05/06 11:51:27;;;;;;;8.30;5.20;;;20.30;99.90;;;;;;5037132;28;20168;-88
2022/05/06 11:53:54;;;;;;;15.45;5.78;;;20.20;99.90;;;;;;5037538;28;20179;-84
2022/05/06 11:56:27;;;;;;;6.78;5.90;;;20.40;99.90;;;;;;5036651;28;20180;-88
2022/05/06 11:58:57;;;;;;;8.93;6.00;;;20.40;99.90;;;;;;5037169;28;20210;-86
2022/05/06 12:01:35;;;;;;;5.10;4.60;;;20.40;99.90;;;;;;5036730;28;20548;-80
2022/05/06 12:04:03;;;;;;;7.97;4.78;;;20.30;99.90;;;;;;5037759;28;20171;-83
2022/05/06 12:06:31;;;;;;;6.55;4.38;;;20.30;99.90;;;;;;5037023;28;20670;-82
2022/05/06 12:09:28;;;;;;;7.15;5.18;;;20.20;99.90;;;;;;5036918;28;20187;-85
2022/05/06 12:12:06;;;;;;;10.65;5.53;;;20.50;99.90;;;;;;5020633;28;20269;-84
2022/05/06 12:14:32;;;;;;;7.32;6.10;;;20.60;99.90;;;;;;5037412;28;20555;-81
2022/05/06 12:16:59;;;;;;;8.57;5.55;;;20.90;99.90;;;;;;5036552;28;20190;-85
2022/05/06 12:19:43;;;;;;;22.48;5.93;;;20.90;99.90;;;;;;5036573;28;20603;-83
2022/05/06 12:22:13;;;;;;;12.77;5.35;;;20.90;99.90;;;;;;5035891;28;20168;-89
2022/05/06 12:24:58;;;;;;;8.18;4.90;;;21.10;99.90;;;;;;5051588;28;20263;-89
2022/05/06 12:27:29;;;;;;;7.63;5.55;;;21.00;99.90;;;;;;5036806;28;20168;-81
2022/05/06 12:29:56;;;;;;;6.18;5.10;;;21.00;99.90;;;;;;5036335;28;20542;-84
2022/05/06 12:32:22;;;;;;;6.22;5.63;;;21.00;99.90;;;;;;5036460;28;20207;-89
2022/05/06 12:35:05;;;;;;;8.07;5.40;;;21.20;99.90;;;;;;5036262;28;20186;-76
2022/05/06 12:37:30;;;;;;;7.38;5.78;;;21.40;99.90;;;;;;5036398;28;20160;-87
2022/05/06 12:39:59;;;;;;;6.30;5.03;;;21.40;99.90;;;;;;5036904;28;20247;-81
2022/05/06 12:42:25;;;;;;;7.82;5.50;;;21.50;99.90;;;;;;5035730;28;20160;-83
2022/05/06 12:44:51;;;;;;;7.80;5.43;;;21.50;99.90;;;;;;5035423;28;20594;-84
2022/05/06 12:50:10;;;;;;;13.02;5.90;;;21.40;99.90;;;;;;5036837;28;20580;-83
2022/05/06 12:52:36;;;;;;;10.43;6.53;;;21.60;99.90;;;;;;5036368;28;20214;-85
2022/05/06 12:55:06;;;;;;;9.75;7.22;;;21.40;99.90;;;;;;5036732;28;20242;-79
2022/05/06 12:57:32;;;;;;;6.15;5.53;;;21.20;99.90;;;;;;5036782;28;20581;-80
2022/05/06 12:59:58;;;;;;;10.10;6.50;;;21.10;99.90;;;;;;5036094;28;20251;-83
2022/05/06 13:02:23;;;;;;;14.57;5.32;;;21.10;99.90;;;;;;5035696;28;20270;-79
2022/05/06 13:04:49;;;;;;;11.23;5.53;;;21.20;99.90;;;;;;5035869;28;20203;-84
2022/05/06 13:07:15;;;;;;;5.15;4.63;;;21.30;99.90;;;;;;5035638;28;20623;-84
2022/05/06 13:09:41;;;;;;;8.52;6.03;;;21.20;99.90;;;;;;5035773;28;20635;-77
2022/05/06 13:12:09;;;;;;;9.25;5.05;;;21.10;99.90;;;;;;5034855;28;20200;-82
2022/05/06 13:14:35;;;;;;;7.32;5.07;;;21.00;99.90;;;;;;5036432;28;20168;-81
2022/05/06 13:17:01;;;;;;;7.47;5.45;;;21.00;99.90;;;;;;5036588;28;20195;-79
2022/05/06 13:19:29;;;;;;;14.32;5.55;;;21.00;99.90;;;;;;5035630;28;20187;-75
2022/05/06 13:21:55;;;;;;;8.70;5.70;;;21.30;99.90;;;;;;5035834;28;20172;-81
2022/05/06 13:24:22;;;;;;;7.80;5.25;;;21.50;99.90;;;;;;5051240;28;20201;-89